Time;durP1;ratioP1;P1;durP2;ratioP2;P2;SDS_P1;SDS_P2;PMS_P1;PMS_P2;Temp;Humidity;BMP_temperature;BMP_pressure;BME280_temperature;BME280_humidity;BME280_pressure;Samples;Min_cycle;Max_cycle;Signal;HPM_P1;HPM_P2
2021/05/07 00:01:07;;;;;;;;;;;;;;;5.75;61.36;99095.88;3507955;28;19924;-49
2021/05/07 00:02:48;;;;;;;;;;;;;;;5.72;60.93;99106.09;3512822;28;19955;-50
2021/05/07 00:04:30;;;;;;;;;;;;;;;5.69;60.91;99097.41;3509202;28;19977;-50
2021/05/07 00:06:11;;;;;;;;;;;;;;;5.67;60.48;99099.94;3512217;28;20386;-49
2021/05/07 00:07:52;;;;;;;;;;;;;;;5.65;60.69;99100.75;3509917;28;19997;-50
2021/05/07 00:09:34;;;;;;;;;;;;;;;5.66;60.81;99098.22;3510219;28;20377;-49
2021/05/07 00:11:17;;;;;;;;;;;;;;;5.66;60.96;99102.47;3512111;28;19959;-50
2021/05/07 00:12:58;;;;;;;;;;;;;;;5.68;61.25;99095.69;3506372;28;19959;-51
2021/05/07 00:14:40;;;;;;;;;;;;;;;5.69;62.26;99100.84;3512881;28;19923;-49
2021/05/07 00:16:21;;;;;;;;;;;;;;;5.70;62.98;99100.03;3506470;28;20420;-50
2021/05/07 00:18:02;;;;;;;;;;;;;;;5.72;62.90;99097.50;3509322;28;20395;-49
2021/05/07 00:19:44;;;;;;;;;;;;;;;5.75;62.99;99092.44;3511090;28;19924;-49
2021/05/07 00:21:25;;;;;;;;;;;;;;;5.77;62.52;99093.34;3509114;28;19924;-50
2021/05/07 00:23:06;;;;;;;;;;;;;;;5.80;62.87;99100.25;3512421;28;19924;-51
2021/05/07 00:24:47;;;;;;;;;;;;;;;5.82;62.76;99096.00;3509092;28;19924;-49
2021/05/07 00:26:29;;;;;;;;;;;;;;;5.83;61.98;99093.47;3512610;28;20020;-50
2021/05/07 00:28:11;;;;;;;;;;;;;;;5.87;60.95;99086.69;3507708;28;19988;-49
2021/05/07 00:29:52;;;;;;;;;;;;;;;5.90;59.63;99085.03;3510824;28;19923;-49
2021/05/07 00:31:33;;;;;;;;;;;;;;;5.93;59.14;99082.53;3508749;28;19975;-50
2021/05/07 00:33:15;;;;;;;;;;;;;;;5.96;57.95;99080.88;3509316;28;19930;-49
2021/05/07 00:34:56;;;;;;;;;;;;;;;5.98;57.19;99068.91;3511392;28;19924;-48
2021/05/07 00:36:37;;;;;;;;;;;;;;;6.01;56.80;99068.97;3508808;28;20390;-50
2021/05/07 00:38:18;;;;;;;;;;;;;;;6.01;56.71;99069.88;3512393;28;20006;-51
2021/05/07 00:39:59;;;;;;;;;;;;;;;6.04;55.98;99066.47;3507519;28;19924;-49
2021/05/07 00:41:41;;;;;;;;;;;;;;;6.05;57.36;99061.38;3511416;28;19924;-50
2021/05/07 00:43:22;;;;;;;;;;;;;;;6.07;59.15;99063.97;3509931;28;20403;-49
2021/05/07 00:45:04;;;;;;;;;;;;;;;6.06;59.61;99057.06;3508868;28;19928;-49
2021/05/07 00:46:46;;;;;;;;;;;;;;;6.05;59.73;99061.38;3511082;28;19971;-49
2021/05/07 00:48:27;;;;;;;;;;;;;;;6.05;59.46;99063.09;3507114;28;19985;-49
2021/05/07 00:50:10;;;;;;;;;;;;;;;6.03;59.60;99064.72;3498349;28;20408;-50
2021/05/07 00:51:51;;;;;;;;;;;;;;;6.02;59.93;99063.00;3507260;28;19967;-49
2021/05/07 00:53:33;;;;;;;;;;;;;;;6.01;60.50;99068.97;3510781;28;19931;-49
2021/05/07 00:55:14;;;;;;;;;;;;;;;6.00;60.84;99069.84;3509721;28;19951;-49
2021/05/07 00:56:55;;;;;;;;;;;;;;;5.98;59.86;99068.91;3508444;28;19928;-48
2021/05/07 00:58:37;;;;;;;;;;;;;;;5.95;59.53;99067.16;3510411;28;19924;-50
2021/05/07 01:00:18;;;;;;;;;;;;;;;5.93;58.71;99073.97;3508308;28;19924;-49
2021/05/07 01:02:04;;;;;;;;;;;;;;;5.90;58.61;99072.19;3511748;28;19928;-50
2021/05/07 01:03:45;;;;;;;;;;;;;;;5.86;59.01;99066.94;3506933;28;20509;-50
2021/05/07 01:05:26;;;;;;;;;;;;;;;5.83;58.26;99077.16;3510422;28;20395;-51
2021/05/07 01:07:07;;;;;;;;;;;;;;;5.78;57.78;99069.31;3508758;28;19924;-43
2021/05/07 01:08:49;;;;;;;;;;;;;;;5.76;57.35;99071.00;3509740;28;19924;-44
2021/05/07 01:10:30;;;;;;;;;;;;;;;5.73;57.62;99070.94;3497967;28;19924;-43
2021/05/07 01:12:12;;;;;;;;;;;;;;;5.70;58.02;99068.28;3501987;28;20396;-43
2021/05/07 01:13:53;;;;;;;;;;;;;;;5.66;59.41;99064.78;3510317;28;19929;-43
2021/05/07 01:15:34;;;;;;;;;;;;;;;5.65;60.06;99069.88;3506692;28;20416;-43
2021/05/07 01:17:15;;;;;;;;;;;;;;;5.62;60.87;99069.81;3509498;28;19931;-43
2021/05/07 01:18:56;;;;;;;;;;;;;;;5.59;61.36;99072.31;3500294;28;19967;-45
2021/05/07 01:20:38;;;;;;;;;;;;;;;5.55;61.15;99063.63;3498310;28;19932;-43
2021/05/07 01:22:19;;;;;;;;;;;;;;;5.53;61.03;99065.31;3511404;28;20003;-44
2021/05/07 01:24:01;;;;;;;;;;;;;;;5.49;61.44;99066.94;3508318;28;20022;-43
2021/05/07 01:25:43;;;;;;;;;;;;;;;5.48;61.74;99067.78;3511582;28;19931;-43
2021/05/07 01:27:24;;;;;;;;;;;;;;;5.46;61.82;99064.28;3506812;28;19931;-43
2021/05/07 01:29:09;;;;;;;;;;;;;;;5.44;61.76;99065.09;3510977;28;19931;-42
2021/05/07 01:30:50;;;;;;;;;;;;;;;5.42;61.70;99056.47;3500463;28;19935;-43
2021/05/07 01:32:31;;;;;;;;;;;;;;;5.41;62.16;99058.16;3499297;28;20002;-43
2021/05/07 01:34:12;;;;;;;;;;;;;;;5.41;62.07;99059.88;3510223;28;19930;-43
2021/05/07 01:35:54;;;;;;;;;;;;;;;5.41;62.34;99062.44;3507887;28;20445;-43
2021/05/07 01:37:36;;;;;;;;;;;;;;;5.41;61.74;99059.88;3511549;28;19923;-43
2021/05/07 01:39:17;;;;;;;;;;;;;;;5.40;60.63;99053.00;3506539;28;20028;-43
2021/05/07 01:40:58;;;;;;;;;;;;;;;5.41;60.43;99053.00;3510419;28;19969;-42
2021/05/07 01:42:39;;;;;;;;;;;;;;;5.41;60.83;99055.59;3508869;28;20415;-43
2021/05/07 01:44:20;;;;;;;;;;;;;;;5.42;60.36;99057.34;3507870;28;19928;-43
2021/05/07 01:46:02;;;;;;;;;;;;;;;5.42;59.98;99057.34;3510533;28;19959;-43
2021/05/07 01:47:43;;;;;;;;;;;;;;;5.43;59.62;99053.06;3506514;28;19928;-43
2021/05/07 01:49:24;;;;;;;;;;;;;;;5.40;58.96;99056.44;3511251;28;20429;-43
2021/05/07 01:51:08;;;;;;;;;;;;;;;5.38;59.29;99055.53;3505728;28;19923;-43
2021/05/07 01:52:49;;;;;;;;;;;;;;;5.36;58.57;99052.06;3510670;28;19924;-42
2021/05/07 01:54:31;;;;;;;;;;;;;;;5.36;58.31;99054.63;3508764;28;19931;-43
2021/05/07 01:56:12;;;;;;;;;;;;;;;5.36;58.67;99062.34;3507895;28;20426;-43
2021/05/07 01:57:53;;;;;;;;;;;;;;;5.36;59.07;99068.34;3510252;28;19924;-43
2021/05/07 01:59:34;;;;;;;;;;;;;;;5.36;58.91;99073.50;3507094;28;19924;-43
2021/05/07 02:01:16;;;;;;;;;;;;;;;5.38;59.20;99068.41;3511248;28;19967;-43
2021/05/07 02:02:57;;;;;;;;;;;;;;;5.40;59.40;99061.59;3507757;28;19924;-43
2021/05/07 02:04:39;;;;;;;;;;;;;;;5.44;59.78;99065.09;3509806;28;19923;-43
2021/05/07 02:06:20;;;;;;;;;;;;;;;5.45;60.20;99072.84;3507871;28;19923;-43
2021/05/07 02:08:03;;;;;;;;;;;;;;;5.47;58.51;99070.31;3506873;28;19928;-43
2021/05/07 02:09:44;;;;;;;;;;;;;;;5.49;57.36;99071.22;3509986;28;20440;-43
2021/05/07 02:11:26;;;;;;;;;;;;;;;5.53;57.00;99073.88;3507758;28;19931;-43
2021/05/07 02:13:08;;;;;;;;;;;;;;;5.58;57.49;99079.16;3509700;28;19971;-42
2021/05/07 02:14:49;;;;;;;;;;;;;;;5.60;57.07;99072.34;3507814;28;19953;-43
2021/05/07 02:16:30;;;;;;;;;;;;;;;5.64;57.15;99079.31;3511091;28;19923;-43
2021/05/07 02:18:12;;;;;;;;;;;;;;;5.70;57.01;99081.16;3506833;28;19927;-43
2021/05/07 02:19:53;;;;;;;;;;;;;;;5.74;56.73;99078.69;3509244;28;20386;-42
2021/05/07 02:21:35;;;;;;;;;;;;;;;5.80;56.35;99077.09;3509802;28;19963;-43
2021/05/07 02:23:16;;;;;;;;;;;;;;;5.85;56.05;99078.94;3506409;28;20337;-43
2021/05/07 02:24:57;;;;;;;;;;;;;;;5.90;55.87;99084.19;3511572;28;19989;-43
2021/05/07 02:26:38;;;;;;;;;;;;;;;5.95;55.34;99074.88;3506246;28;19959;-43
2021/05/07 02:28:21;;;;;;;;;;;;;;;6.00;55.21;99077.56;3511344;28;19924;-43
2021/05/07 02:30:02;;;;;;;;;;;;;;;6.05;55.99;99074.25;3508403;28;19979;-43
2021/05/07 02:31:43;;;;;;;;;;;;;;;6.11;56.97;99082.09;3507906;28;19928;-44
2021/05/07 02:33:25;;;;;;;;;;;;;;;6.17;57.65;99080.47;3511135;28;19930;-43
2021/05/07 02:35:07;;;;;;;;;;;;;;;6.21;57.11;99074.59;3504830;28;19935;-43
2021/05/07 02:36:48;;;;;;;;;;;;;;;6.26;56.22;99073.84;3506666;28;19928;-43
2021/05/07 02:38:30;;;;;;;;;;;;;;;6.30;55.85;99072.19;3506555;28;19988;-43
2021/05/07 02:40:12;;;;;;;;;;;;;;;6.34;54.72;99075.69;3508890;28;20428;-43
2021/05/07 02:41:53;;;;;;;;;;;;;;;6.36;54.38;99067.16;3509344;28;19982;-43
2021/05/07 02:43:34;;;;;;;;;;;;;;;6.40;53.54;99065.50;3507031;28;20269;-43
2021/05/07 02:45:15;;;;;;;;;;;;;;;6.43;53.84;99061.28;3511150;28;20012;-43
2021/05/07 02:47:03;;;;;;;;;;;;;;;6.50;54.03;99072.59;3507599;28;19931;-44
2021/05/07 02:48:44;;;;;;;;;;;;;;;6.57;53.97;99065.84;3511092;28;19928;-43
2021/05/07 02:50:25;;;;;;;;;;;;;;;6.60;53.11;99063.34;3508069;28;19924;-43
2021/05/07 02:52:07;;;;;;;;;;;;;;;6.65;53.57;99062.59;3509052;28;20394;-43
2021/05/07 02:53:48;;;;;;;;;;;;;;;6.72;53.14;99065.28;3509849;28;19924;-43
2021/05/07 02:55:29;;;;;;;;;;;;;;;6.76;52.82;99057.66;3507611;28;20445;-43
2021/05/07 02:57:10;;;;;;;;;;;;;;;6.82;53.04;99068.09;3510827;28;19924;-43
2021/05/07 02:58:51;;;;;;;;;;;;;;;6.91;52.56;99062.19;3506194;28;19931;-43
2021/05/07 03:00:33;;;;;;;;;;;;;;;7.00;52.49;99071.84;3510916;28;19931;-43
2021/05/07 03:02:14;;;;;;;;;;;;;;;7.10;51.97;99075.47;3506060;28;19989;-43
2021/05/07 03:03:56;;;;;;;;;;;;;;;7.20;52.18;99070.50;3508882;28;19930;-42
2021/05/07 03:05:37;;;;;;;;;;;;;;;7.29;51.45;99071.53;3509524;28;19982;-43
2021/05/07 03:07:19;;;;;;;;;;;;;;;7.35;51.52;99067.31;3505999;28;19923;-43
2021/05/07 03:09:00;;;;;;;;;;;;;;;7.41;51.32;99072.59;3510707;28;20482;-44
2021/05/07 03:10:42;;;;;;;;;;;;;;;7.47;51.12;99076.13;3505955;28;20040;-43
2021/05/07 03:12:23;;;;;;;;;;;;;;;7.53;51.08;99065.88;3510712;28;20277;-43
2021/05/07 03:14:05;;;;;;;;;;;;;;;7.57;50.96;99076.28;3506558;28;19979;-42
2021/05/07 03:15:46;;;;;;;;;;;;;;;7.60;50.77;99073.75;3507240;28;20323;-42
2021/05/07 03:17:27;;;;;;;;;;;;;;;7.63;50.25;99075.50;3509248;28;19963;-43
2021/05/07 03:19:09;;;;;;;;;;;;;;;7.68;50.26;99076.44;3506281;28;19928;-43
2021/05/07 03:20:51;;;;;;;;;;;;;;;7.72;50.04;99080.81;3510507;28;19924;-43
2021/05/07 03:22:33;;;;;;;;;;;;;;;7.76;49.78;99077.44;3506137;28;20082;-43
2021/05/07 03:24:14;;;;;;;;;;;;;;;7.80;49.80;99079.22;3510905;28;19931;-42
2021/05/07 03:25:55;;;;;;;;;;;;;;;7.84;49.76;99075.84;3507017;28;19928;-43
2021/05/07 03:27:36;;;;;;;;;;;;;;;7.89;49.57;99077.63;3508847;28;19924;-43
2021/05/07 03:29:17;;;;;;;;;;;;;;;7.92;49.18;99086.28;3508521;28;19923;-43
2021/05/07 03:30:59;;;;;;;;;;;;;;;7.97;49.38;99078.59;3505484;28;20385;-43
2021/05/07 03:32:40;;;;;;;;;;;;;;;8.06;49.12;99077.84;3509446;28;20005;-43
2021/05/07 03:34:21;;;;;;;;;;;;;;;8.15;49.43;99086.63;3505779;28;19928;-43
2021/05/07 03:36:03;;;;;;;;;;;;;;;8.28;49.34;99090.22;3510526;28;19931;-43
2021/05/07 03:37:45;;;;;;;;;;;;;;;8.42;49.04;99095.59;3507042;28;20447;-43
2021/05/07 03:39:26;;;;;;;;;;;;;;;8.55;48.74;99097.50;3509203;28;20308;-43
2021/05/07 03:41:08;;;;;;;;;;;;;;;8.67;48.69;99096.75;3507517;28;19982;-43
2021/05/07 03:42:49;;;;;;;;;;;;;;;8.75;48.46;99095.13;3507149;28;19924;-43
2021/05/07 03:44:30;;;;;;;;;;;;;;;8.83;48.10;99094.34;3510141;28;19970;-43
2021/05/07 03:46:11;;;;;;;;;;;;;;;8.89;48.50;99092.72;3507261;28;19931;-43
2021/05/07 03:47:53;;;;;;;;;;;;;;;8.95;48.02;99089.31;3510416;28;20389;-43
2021/05/07 03:49:35;;;;;;;;;;;;;;;9.00;47.92;99092.81;3506845;28;19927;-43
2021/05/07 03:51:17;;;;;;;;;;;;;;;9.08;47.61;99087.72;3509192;28;20385;-43
2021/05/07 03:52:58;;;;;;;;;;;;;;;9.14;47.81;99091.25;3508131;28;19947;-43
2021/05/07 03:54:40;;;;;;;;;;;;;;;9.23;47.62;99082.69;3508151;28;19975;-42
2021/05/07 03:56:21;;;;;;;;;;;;;;;9.29;47.36;99090.50;3508981;28;19993;-43
2021/05/07 03:58:03;;;;;;;;;;;;;;;9.37;47.13;99088.00;3504551;28;20389;-43
2021/05/07 03:59:44;;;;;;;;;;;;;;;9.43;47.33;99080.31;3510220;28;20397;-43
2021/05/07 04:01:25;;;;;;;;;;;;;;;9.47;47.27;99086.38;3506685;28;19927;-43
2021/05/07 04:03:06;;;;;;;;;;;;;;;9.49;47.43;99087.28;3509517;28;20411;-43
2021/05/07 04:04:47;;;;;;;;;;;;;;;9.51;47.19;99093.34;3507657;28;20301;-43
2021/05/07 04:06:29;;;;;;;;;;;;;;;9.52;46.50;99092.47;3506845;28;20352;-43
2021/05/07 04:08:13;;;;;;;;;;;;;;;9.55;46.00;99095.09;3510245;28;19978;-43
2021/05/07 04:09:57;;;;;;;;;;;;;;;9.60;45.84;99103.78;3506836;28;19955;-42
2021/05/07 04:11:50;;;;;;;;;;;;;;;9.67;45.65;99105.56;3509056;28;19923;-43
2021/05/07 04:13:40;;;;;;;;;;;;;;;9.78;45.94;99100.47;3507345;28;19924;-43
2021/05/07 04:15:21;;;;;;;;;;;;;;;9.96;45.65;99096.25;3506987;28;19931;-43
2021/05/07 04:17:03;;;;;;;;;;;;;;;10.13;45.67;99096.38;3510183;28;19966;-43
2021/05/07 04:18:45;;;;;;;;;;;;;;;10.25;44.90;99094.72;3506981;28;20278;-43
2021/05/07 04:20:26;;;;;;;;;;;;;;;10.37;44.54;99093.03;3509009;28;19931;-43
2021/05/07 04:22:07;;;;;;;;;;;;;;;10.44;44.40;99097.41;3508144;28;19977;-42
2021/05/07 04:23:49;;;;;;;;;;;;;;;10.48;43.78;99097.44;3505413;28;20419;-43
2021/05/07 04:25:30;;;;;;;;;;;;;;;10.52;44.30;99107.84;3509913;28;20300;-43
2021/05/07 04:27:11;;;;;;;;;;;;;;;10.52;44.16;99102.66;3506771;28;19924;-43
2021/05/07 04:28:52;;;;;;;;;;;;;;;10.53;44.32;99105.25;3510007;28;19931;-43
2021/05/07 04:30:33;;;;;;;;;;;;;;;10.52;43.91;99098.31;3505407;28;19928;-43
2021/05/07 04:32:15;;;;;;;;;;;;;;;10.52;44.55;99102.66;3509423;28;19971;-42
2021/05/07 04:33:57;;;;;;;;;;;;;;;10.52;44.49;99105.25;3507839;28;19931;-43
2021/05/07 04:35:38;;;;;;;;;;;;;;;10.52;44.70;99102.66;3508112;28;19924;-43
2021/05/07 04:37:19;;;;;;;;;;;;;;;10.55;45.10;99103.53;3508706;28;20357;-43
2021/05/07 04:39:01;;;;;;;;;;;;;;;10.60;44.58;99104.41;3506483;28;19928;-43
2021/05/07 04:40:42;;;;;;;;;;;;;;;10.66;44.39;99106.16;3510186;28;19989;-43
2021/05/07 04:42:23;;;;;;;;;;;;;;;10.70;44.09;99100.13;3507433;28;19928;-43
2021/05/07 04:44:06;;;;;;;;;;;;;;;10.73;44.65;99100.13;3510548;28;19931;-43
2021/05/07 04:45:47;;;;;;;;;;;;;;;10.78;44.58;99092.38;3501117;28;19924;-43
2021/05/07 04:47:28;;;;;;;;;;;;;;;10.80;44.51;99090.66;3500002;28;20333;-43
2021/05/07 04:49:10;;;;;;;;;;;;;;;10.80;44.61;99090.66;3512361;28;20010;-49
2021/05/07 04:50:51;;;;;;;;;;;;;;;10.79;44.98;99097.53;3507356;28;19928;-50
2021/05/07 04:52:32;;;;;;;;;;;;;;;10.77;44.99;99094.09;3512126;28;19931;-49
2021/05/07 04:54:13;;;;;;;;;;;;;;;10.75;44.13;99088.03;3508913;28;19927;-50
2021/05/07 04:55:54;;;;;;;;;;;;;;;10.85;44.26;99091.53;3511100;28;19935;-48
2021/05/07 04:57:36;;;;;;;;;;;;;;;10.99;44.90;99089.84;3508778;28;19982;-48
2021/05/07 04:59:17;;;;;;;;;;;;;;;11.17;43.69;99086.41;3508091;28;19925;-49
2021/05/07 05:00:58;;;;;;;;;;;;;;;11.33;43.18;99087.34;3510608;28;19931;-49
2021/05/07 05:02:39;;;;;;;;;;;;;;;11.42;42.81;99084.75;3508559;28;19962;-50
2021/05/07 05:04:20;;;;;;;;;;;;;;;11.42;43.13;99079.53;3512194;28;19924;-49
2021/05/07 05:06:01;;;;;;;;;;;;;;;11.46;42.73;99085.59;3508714;28;20458;-49
2021/05/07 05:07:46;;;;;;;;;;;;;;;11.47;42.55;99089.09;3511619;28;19959;-49
2021/05/07 05:09:28;;;;;;;;;;;;;;;11.49;42.49;99083.03;3509091;28;19977;-49
2021/05/07 05:11:09;;;;;;;;;;;;;;;11.52;42.23;99088.22;3509480;28;19928;-51
2021/05/07 05:12:50;;;;;;;;;;;;;;;11.58;41.96;99089.94;3511913;28;19931;-50
2021/05/07 05:14:31;;;;;;;;;;;;;;;11.69;41.93;99093.41;3505657;28;20377;-50
2021/05/07 05:16:12;;;;;;;;;;;;;;;11.85;41.77;99085.59;3512283;28;20002;-49
2021/05/07 05:17:53;;;;;;;;;;;;;;;12.02;41.62;99080.41;3507003;28;19931;-52
2021/05/07 05:19:35;;;;;;;;;;;;;;;12.13;40.95;99091.63;3511541;28;19971;-49
2021/05/07 05:21:16;;;;;;;;;;;;;;;12.24;41.86;99087.28;3508955;28;19924;-52
2021/05/07 05:22:59;;;;;;;;;;;;;;;12.33;41.45;99087.25;3509876;28;19954;-50
2021/05/07 05:24:41;;;;;;;;;;;;;;;12.41;41.54;99089.81;3510216;28;19966;-49
2021/05/07 05:26:22;;;;;;;;;;;;;;;12.48;40.96;99086.31;3507090;28;19960;-51
2021/05/07 05:28:04;;;;;;;;;;;;;;;12.58;40.57;99081.97;3511993;28;19955;-49
2021/05/07 05:29:45;;;;;;;;;;;;;;;12.72;39.93;99087.13;3506970;28;19935;-51
2021/05/07 05:31:26;;;;;;;;;;;;;;;12.81;40.08;99086.22;3511371;28;19975;-50
2021/05/07 05:33:07;;;;;;;;;;;;;;;12.87;38.79;99079.22;3508899;28;19931;-49
2021/05/07 05:34:49;;;;;;;;;;;;;;;12.97;39.35;99087.88;3508177;28;19946;-50
2021/05/07 05:36:30;;;;;;;;;;;;;;;13.08;38.97;99085.22;3510829;28;19975;-51
2021/05/07 05:38:12;;;;;;;;;;;;;;;13.22;38.60;99086.00;3508133;28;19973;-52
2021/05/07 05:39:54;;;;;;;;;;;;;;;13.37;38.18;99082.44;3497823;28;19924;-49
2021/05/07 05:41:45;;;;;;;;;;;;;;;13.55;37.58;99088.34;3506336;28;20461;-52
2021/05/07 05:43:26;;;;;;;;;;;;;;;13.69;37.47;99076.97;3511233;28;19981;-53
2021/05/07 05:45:07;;;;;;;;;;;;;;;13.84;36.99;99075.09;3507894;28;20296;-53
2021/05/07 05:46:49;;;;;;;;;;;;;;;13.92;36.84;99073.28;3508597;28;20405;-50
2021/05/07 05:48:30;;;;;;;;;;;;;;;13.94;36.92;99081.09;3511370;28;20022;-53
2021/05/07 05:50:12;;;;;;;;;;;;;;;13.87;37.10;99075.94;3508122;28;19923;-51
2021/05/07 05:51:54;;;;;;;;;;;;;;;13.78;37.84;99076.03;3511628;28;20307;-51
2021/05/07 05:53:36;;;;;;;;;;;;;;;13.74;38.10;99083.88;3507494;28;19939;-44
2021/05/07 05:55:18;;;;;;;;;;;;;;;13.78;38.16;99077.78;3510078;28;19978;-52
2021/05/07 05:56:59;;;;;;;;;;;;;;;13.76;38.20;99079.50;3500427;28;20381;-51
2021/05/07 05:58:42;;;;;;;;;;;;;;;13.84;38.21;99082.91;3500690;28;19933;-52
2021/05/07 06:00:23;;;;;;;;;;;;;;;13.96;38.31;99097.59;3497938;28;20013;-52
2021/05/07 06:02:05;;;;;;;;;;;;;;;14.03;37.80;99087.06;3500099;28;19963;-49
2021/05/07 06:03:47;;;;;;;;;;;;;;;14.16;38.14;99085.19;3511406;28;19924;-49
2021/05/07 06:05:28;;;;;;;;;;;;;;;14.26;37.08;99088.59;3508137;28;19977;-49
2021/05/07 06:07:09;;;;;;;;;;;;;;;14.34;36.52;99083.31;3509773;28;19924;-50
2021/05/07 06:08:50;;;;;;;;;;;;;;;14.45;36.78;99077.09;3508530;28;20343;-49
2021/05/07 06:10:32;;;;;;;;;;;;;;;14.59;36.39;99076.94;3507121;28;19978;-51
2021/05/07 06:12:13;;;;;;;;;;;;;;;14.70;36.66;99089.84;3510417;28;19930;-48
2021/05/07 06:13:54;;;;;;;;;;;;;;;14.74;35.87;99078.47;3506456;28;19969;-49
2021/05/07 06:15:35;;;;;;;;;;;;;;;14.76;35.38;99078.47;3511347;28;19950;-50
2021/05/07 06:17:16;;;;;;;;;;;;;;;14.83;36.06;99078.34;3506659;28;20026;-52
2021/05/07 06:18:58;;;;;;;;;;;;;;;14.89;35.46;99082.66;3510889;28;19924;-50
2021/05/07 06:20:39;;;;;;;;;;;;;;;14.92;35.15;99076.50;3508186;28;19924;-45
2021/05/07 06:22:20;;;;;;;;;;;;;;;14.98;34.89;99074.69;3508696;28;19928;-43
2021/05/07 06:24:02;;;;;;;;;;;;;;;15.11;35.58;99072.75;3510803;28;19923;-44
2021/05/07 06:25:44;;;;;;;;;;;;;;;15.26;34.90;99068.19;3507993;28;20411;-49
2021/05/07 06:27:25;;;;;;;;;;;;;;;15.26;32.62;99069.06;3511156;28;20020;-49
2021/05/07 06:29:06;;;;;;;;;;;;;;;15.27;32.62;99069.94;3507763;28;20438;-50
2021/05/07 06:30:47;;;;;;;;;;;;;;;15.21;32.46;99071.75;3510885;28;20007;-49
2021/05/07 06:32:29;;;;;;;;;;;;;;;15.24;32.18;99070.81;3508083;28;20296;-49
2021/05/07 06:34:10;;;;;;;;;;;;;;;15.27;32.61;99080.38;3510284;28;20358;-48
2021/05/07 06:35:51;;;;;;;;;;;;;;;15.31;33.00;99076.81;3509875;28;19931;-49
2021/05/07 06:37:32;;;;;;;;;;;;;;;15.31;32.72;99069.88;3506172;28;20404;-49
2021/05/07 06:39:13;;;;;;;;;;;;;;;15.34;32.85;99072.41;3511288;28;19940;-50
2021/05/07 06:40:55;;;;;;;;;;;;;;;15.38;33.09;99078.47;3505704;28;20393;-50
2021/05/07 06:42:37;;;;;;;;;;;;;;;15.44;33.21;99067.91;3510255;28;20447;-50
2021/05/07 06:44:18;;;;;;;;;;;;;;;15.52;33.35;99068.63;3506418;28;19924;-49
2021/05/07 06:46:00;;;;;;;;;;;;;;;15.56;32.34;99072.94;3507334;28;19959;-51
2021/05/07 06:47:41;;;;;;;;;;;;;;;15.58;32.70;99071.22;3509821;28;19963;-50
2021/05/07 06:49:23;;;;;;;;;;;;;;;15.59;32.62;99074.69;3507893;28;19931;-51
2021/05/07 06:51:04;;;;;;;;;;;;;;;15.58;32.98;99065.13;3511098;28;20016;-52
2021/05/07 06:52:48;;;;;;;;;;;;;;;15.57;33.05;99064.19;3506620;28;19931;-50
2021/05/07 06:54:29;;;;;;;;;;;;;;;15.59;33.02;99061.59;3510538;28;20000;-50
2021/05/07 06:56:11;;;;;;;;;;;;;;;15.63;32.97;99067.63;3509044;28;19928;-50
2021/05/07 06:57:56;;;;;;;;;;;;;;;15.67;33.04;99061.50;3508304;28;20023;-52
2021/05/07 06:59:37;;;;;;;;;;;;;;;15.67;33.10;99058.88;3510073;28;19967;-49
2021/05/07 07:01:19;;;;;;;;;;;;;;;15.68;33.43;99063.19;3505981;28;19971;-49
2021/05/07 07:03:00;;;;;;;;;;;;;;;15.64;32.93;99056.31;3511112;28;19967;-49
2021/05/07 07:04:41;;;;;;;;;;;;;;;15.63;33.96;99060.69;3503311;28;20300;-51
2021/05/07 07:06:22;;;;;;;;;;;;;;;15.57;32.98;99069.44;3496669;28;19941;-50
2021/05/07 07:08:04;;;;;;;;;;;;;;;15.58;34.04;99065.97;3505785;28;19931;-52
2021/05/07 07:09:45;;;;;;;;;;;;;;;15.59;33.83;99067.72;3507471;28;20305;-50
2021/05/07 07:11:27;;;;;;;;;;;;;;;15.57;33.52;99058.13;3509617;28;19943;-45
2021/05/07 07:13:08;;;;;;;;;;;;;;;15.55;33.99;99060.75;3504478;28;19975;-46
2021/05/07 07:14:49;;;;;;;;;;;;;;;15.54;33.55;99048.59;3510756;28;20080;-45
2021/05/07 07:16:31;;;;;;;;;;;;;;;15.55;34.28;99062.53;3503628;28;19924;-45
2021/05/07 07:18:12;;;;;;;;;;;;;;;15.57;35.02;99055.50;3507365;28;19967;-44
2021/05/07 07:19:54;;;;;;;;;;;;;;;15.62;34.04;99058.94;3499484;28;19977;-44
2021/05/07 07:21:35;;;;;;;;;;;;;;;15.63;33.82;99059.78;3496735;28;19924;-44
2021/05/07 07:23:16;;;;;;;;;;;;;;;15.64;34.31;99045.84;3509162;28;19924;-44
2021/05/07 07:24:57;;;;;;;;;;;;;;;15.64;33.90;99051.06;3506120;28;20111;-46
2021/05/07 07:26:39;;;;;;;;;;;;;;;15.66;34.43;99058.00;3496811;28;19931;-45
2021/05/07 07:28:20;;;;;;;;;;;;;;;15.70;34.30;99054.47;3503469;28;19924;-46
2021/05/07 07:30:01;;;;;;;;;;;;;;;15.73;34.51;99043.91;3510853;28;19928;-45
2021/05/07 07:31:42;;;;;;;;;;;;;;;15.79;33.98;99050.81;3505828;28;19939;-44
2021/05/07 07:33:23;;;;;;;;;;;;;;;15.81;34.34;99045.53;3508589;28;19924;-45
2021/05/07 07:35:05;;;;;;;;;;;;;;;15.84;33.79;99042.88;3509212;28;19927;-45
2021/05/07 07:36:47;;;;;;;;;;;;;;;15.81;33.40;99040.31;3507167;28;19928;-45
2021/05/07 07:38:28;;;;;;;;;;;;;;;15.81;33.00;99051.66;3510534;28;19931;-45
2021/05/07 07:40:09;;;;;;;;;;;;;;;15.82;33.51;99042.91;3506080;28;20022;-44
2021/05/07 07:41:51;;;;;;;;;;;;;;;15.77;33.22;99029.03;3510425;28;19924;-44
2021/05/07 07:43:33;;;;;;;;;;;;;;;15.75;33.66;99041.28;3506924;28;20300;-44
2021/05/07 07:45:14;;;;;;;;;;;;;;;15.75;34.17;99038.66;3508453;28;20351;-44
2021/05/07 07:46:55;;;;;;;;;;;;;;;15.76;34.52;99038.66;3509138;28;19935;-44
2021/05/07 07:48:37;;;;;;;;;;;;;;;15.76;34.22;99041.25;3507884;28;19924;-44
2021/05/07 07:50:18;;;;;;;;;;;;;;;15.75;34.55;99047.41;3509852;28;19923;-44
2021/05/07 07:51:59;;;;;;;;;;;;;;;15.75;34.59;99038.66;3506863;28;20006;-45
2021/05/07 07:53:41;;;;;;;;;;;;;;;15.73;34.25;99037.84;3510526;28;19970;-44
2021/05/07 07:55:22;;;;;;;;;;;;;;;15.73;34.83;99037.84;3506808;28;19931;-44
2021/05/07 07:57:04;;;;;;;;;;;;;;;15.78;35.32;99043.84;3509074;28;19924;-45
2021/05/07 07:58:45;;;;;;;;;;;;;;;15.84;34.83;99042.88;3506674;28;19928;-45
2021/05/07 08:00:26;;;;;;;;;;;;;;;15.86;34.38;99047.22;3506765;28;19931;-44
2021/05/07 08:02:08;;;;;;;;;;;;;;;15.88;34.28;99036.72;3496283;28;20272;-45
2021/05/07 08:03:49;;;;;;;;;;;;;;;15.89;34.49;99035.81;3502519;28;19923;-45
2021/05/07 08:05:30;;;;;;;;;;;;;;;15.91;34.92;99034.03;3510095;28;20450;-45
2021/05/07 08:07:12;;;;;;;;;;;;;;;15.92;34.44;99036.63;3505885;28;19924;-45
2021/05/07 08:08:53;;;;;;;;;;;;;;;15.91;34.62;99034.03;3509403;28;19946;-44
2021/05/07 08:10:34;;;;;;;;;;;;;;;15.88;35.21;99034.97;3508270;28;19931;-44
2021/05/07 08:12:16;;;;;;;;;;;;;;;15.87;34.60;99041.06;3506499;28;19989;-50
2021/05/07 08:13:57;;;;;;;;;;;;;;;15.88;35.01;99034.09;3508517;28;20022;-50
2021/05/07 08:15:39;;;;;;;;;;;;;;;15.93;35.35;99040.09;3505226;28;19931;-49
2021/05/07 08:17:20;;;;;;;;;;;;;;;15.94;35.13;99041.81;3512607;28;19963;-51
2021/05/07 08:19:02;;;;;;;;;;;;;;;15.88;33.80;99055.88;3509182;28;20361;-49
2021/05/07 08:20:44;;;;;;;;;;;;;;;15.85;33.24;99050.69;3511724;28;19963;-51
2021/05/07 08:22:25;;;;;;;;;;;;;;;15.78;33.78;99026.41;3510185;28;19927;-50
2021/05/07 08:24:06;;;;;;;;;;;;;;;15.77;34.01;99040.38;3510384;28;19924;-50
2021/05/07 08:25:47;;;;;;;;;;;;;;;15.77;34.32;99032.53;3511413;28;19931;-50
2021/05/07 08:27:29;;;;;;;;;;;;;;;15.76;34.22;99045.63;3507970;28;20344;-49
2021/05/07 08:29:10;;;;;;;;;;;;;;;15.71;34.42;99029.16;3512572;28;19924;-52
2021/05/07 08:30:52;;;;;;;;;;;;;;;15.64;34.70;99028.41;3507711;28;19928;-49
2021/05/07 08:32:35;;;;;;;;;;;;;;;15.62;34.57;99039.78;3510021;28;19923;-52
2021/05/07 08:34:16;;;;;;;;;;;;;;;15.63;34.84;99023.19;3510424;28;19930;-49
2021/05/07 08:35:57;;;;;;;;;;;;;;;15.66;35.19;99031.00;3509325;28;19963;-49
2021/05/07 08:37:43;;;;;;;;;;;;;;;15.68;34.88;99029.22;3512299;28;19924;-51
2021/05/07 08:39:24;;;;;;;;;;;;;;;15.68;34.17;99029.22;3508966;28;19924;-50
2021/05/07 08:41:05;;;;;;;;;;;;;;;15.66;34.62;99034.47;3512645;28;19951;-50
2021/05/07 08:42:47;;;;;;;;;;;;;;;15.64;34.39;99012.72;3503110;28;19924;-50
2021/05/07 08:44:28;;;;;;;;;;;;;;;15.64;34.64;99023.16;3499279;28;19924;-49
2021/05/07 08:46:10;;;;;;;;;;;;;;;15.65;34.53;99013.56;3510324;28;19928;-46
2021/05/07 08:47:51;;;;;;;;;;;;;;;15.65;34.36;99019.69;3507626;28;19997;-46
2021/05/07 08:49:33;;;;;;;;;;;;;;;15.62;34.89;99019.72;3511985;28;19928;-45
2021/05/07 08:51:14;;;;;;;;;;;;;;;15.66;35.09;99025.75;3508830;28;20293;-45
2021/05/07 08:52:55;;;;;;;;;;;;;;;15.68;35.78;99027.47;3512477;28;20440;-44